OOLO2: Oologah Lake

Data processed at Fri Jan 11 2019 23:32


All information presented herein is the property of the government of the United States of America and may be revised or deleted at any time without prior notice.
Dissemination of this information without the expressed written consent of the Public Affairs Office, Tulsa District U.S. Army Corps of Engineers is strictly prohibited.
These data are gathered electronically and, as presented, have not undergone any form of quality control. These data are not guaranteed to be valid or correct.
Go to home page.
Go to station list.
Go to home page.

Upstream stations:

Downstream station:
Previous Day
Next Day
Current Day
    
SHEF ID:       OOLO2     Oologah Lake
STATION TYPE:  RESERVOIR
Normal Pool:  Bottom =   592.00, Top =   638.00

               PRECIP     STAGE  RIV-FLOW ELEVATION   STORAGE   TW-ELEV    INFLOW   RELEASE  AIR-TEMP  WIND-DIRWIND-SPEED REL-HUMID SOLAR-RAD   VOLTAGE  BAT-LOAD
                   in        ft       cfs        ft     ac-ft        ft       cfs       cfs         F       deg       mph         %      W/m2      volt      volt
              Ccp-Rev   Ccp-Rev   Ccp-Rev   Ccp-Rev   Ccp-Rev   Ccp-Rev  Regi-Rev  Regi-Rev   Ccp-Rev   Ccp-Rev   Ccp-Rev   Ccp-Rev   Ccp-Rev   Ccp-Rev   Ccp-Rev
(US/Central)
01/11 00:00      0.01     16.60      5481    644.12    651260      ----      5478      4633     38.59     75.40      4.30     75.47      0.00     13.47     13.21
01/11 01:00      0.00     16.59      5472    644.05    648813      ----      4632      4632     38.59     98.40      4.80     72.47      0.00     13.47     13.29
01/11 02:00      0.00     16.59      5472    644.08    649862      ----      4350      4632     39.13    108.20      3.30     69.95      0.00     13.48     13.21
01/11 03:00      0.00     16.60      5481    644.09    650211      ----      5760      4632     40.06    111.40      5.60     65.30      0.00     13.47     13.21
01/11 04:00      0.00     16.59      5472    644.06    649163      ----      5478      4632     39.99    114.50      4.70     67.13      0.00     13.47     13.29
01/11 05:00      0.00     16.59      5472    644.07    649512      ----      2093      4632     40.23    113.50      5.30     65.98      0.00     13.47     13.21
01/11 06:00      0.00     16.60      5481    644.06    649163      ----      5478      4632     40.24    110.30      6.30     66.04      0.00     13.47     13.21
01/11 07:00      0.02     16.60      5481    644.05    648813      ----      5478      4631     39.09    104.90      4.60     77.05      0.00     13.47     13.21
01/11 08:00      0.02     16.60      5481    644.08    649862      ----      3786      4632     38.39    102.20      5.60     84.91      0.00     13.48     13.29
01/11 09:00      0.00     16.60      5481    644.10    650561      ----      6324      4632     38.35    103.00      4.00     88.53      0.00     13.47     13.29
01/11 10:00      0.05     16.59      5472    644.06    649163      ----      8097      4632     38.30    108.80      3.50     90.65      0.00     13.47     12.89
01/11 11:00      0.12     16.60      5481    644.08    649862      ----      4632      4632     38.10     91.30      4.60     93.05      0.70     13.48     13.21
01/11 12:00      0.08     16.61      5491    644.10    650561      ----      6324      4632     37.74     90.40      4.60     94.09      3.50     13.47     13.21
01/11 13:00      0.11     16.61      5491    644.08    649862      ----      8097      4632     37.29     83.90      5.00     97.37     14.40     13.47     13.21
01/11 14:00      0.03     16.61      5491    644.09    650211      ----      5479      4632     37.31     88.20      5.10     98.75     17.90     13.47     13.29
01/11 15:00      0.02     16.61      5491    644.12    651260      ----      8782      4633     37.49    108.70      4.90     99.32     10.00     13.48     13.21
01/11 16:00      0.03     16.61      5491    644.09    650211      ----     11401      4633     37.58     91.70      4.20     99.83      0.00     13.47     13.21
01/11 17:00      0.10     16.61      5491    644.14    651960      ----      9710      4633     37.38     71.60      4.50    100.06      0.00     13.48     13.29
01/11 18:00      0.16     16.61      5491    644.16    652659      ----     11322      4634     37.33     47.60      5.10    100.07      0.00     13.47     13.29
01/11 19:00      0.12     16.63      5509    644.15    652309      ----     13941      4634     37.44     36.80      4.70    100.07      0.00     13.48     13.29
01/11 20:00      0.09     16.65      5528    644.18    653358      ----     10557      4635     37.49     43.60      4.30    100.07      0.00     13.48     13.21
01/11 21:00      0.09     16.68      5556    644.20    654057      ----     11404      4635     37.38     54.30      4.80    100.07      0.00     13.48     13.29
01/11 22:00      0.08     16.71      5584    644.21    654407      ----     13096      4636     37.47     57.20      4.60    100.07      0.00     13.47     13.29
01/11 23:00      0.08     16.78      5650    644.24    655456      ----     14789      4636     37.49     54.30      4.50    100.07      0.00     13.47     13.29